sensor_id;sensor_type;location;lat;lon;timestamp;P1;durP1;ratioP1;P2;durP2;ratioP2
23317;SDS011;11831;55.918;37.746;2022-12-10T00:00:40;36.20;;;18.00;;
23317;SDS011;11831;55.918;37.746;2022-12-10T00:03:07;36.30;;;17.17;;
23317;SDS011;11831;55.918;37.746;2022-12-10T00:05:34;32.88;;;16.92;;
23317;SDS011;11831;55.918;37.746;2022-12-10T00:08:01;35.08;;;17.60;;
23317;SDS011;11831;55.918;37.746;2022-12-10T00:10:27;38.38;;;17.42;;
23317;SDS011;11831;55.918;37.746;2022-12-10T00:12:53;38.55;;;17.80;;
23317;SDS011;11831;55.918;37.746;2022-12-10T00:15:20;37.03;;;17.02;;
23317;SDS011;11831;55.918;37.746;2022-12-10T00:17:47;42.70;;;17.92;;
23317;SDS011;11831;55.918;37.746;2022-12-10T00:20:13;37.22;;;18.30;;
23317;SDS011;11831;55.918;37.746;2022-12-10T00:22:40;40.90;;;17.83;;
23317;SDS011;11831;55.918;37.746;2022-12-10T00:25:06;38.08;;;17.95;;
23317;SDS011;11831;55.918;37.746;2022-12-10T00:27:33;34.45;;;17.27;;
23317;SDS011;11831;55.918;37.746;2022-12-10T00:29:59;33.08;;;16.50;;
23317;SDS011;11831;55.918;37.746;2022-12-10T00:32:25;38.53;;;18.10;;
23317;SDS011;11831;55.918;37.746;2022-12-10T00:34:52;34.58;;;17.02;;
23317;SDS011;11831;55.918;37.746;2022-12-10T00:37:18;36.22;;;17.25;;
23317;SDS011;11831;55.918;37.746;2022-12-10T00:39:44;33.63;;;16.08;;
23317;SDS011;11831;55.918;37.746;2022-12-10T00:42:11;45.25;;;18.20;;
23317;SDS011;11831;55.918;37.746;2022-12-10T00:44:38;44.50;;;16.90;;
23317;SDS011;11831;55.918;37.746;2022-12-10T00:47:04;40.40;;;17.60;;
23317;SDS011;11831;55.918;37.746;2022-12-10T00:49:30;43.72;;;18.90;;
23317;SDS011;11831;55.918;37.746;2022-12-10T00:51:57;45.33;;;18.70;;
23317;SDS011;11831;55.918;37.746;2022-12-10T00:54:23;42.88;;;19.05;;
23317;SDS011;11831;55.918;37.746;2022-12-10T00:56:50;64.22;;;22.00;;
23317;SDS011;11831;55.918;37.746;2022-12-10T00:59:16;54.65;;;21.17;;
23317;SDS011;11831;55.918;37.746;2022-12-10T01:01:43;48.95;;;19.12;;
23317;SDS011;11831;55.918;37.746;2022-12-10T01:04:11;60.95;;;21.00;;
23317;SDS011;11831;55.918;37.746;2022-12-10T01:06:41;53.28;;;21.17;;
23317;SDS011;11831;55.918;37.746;2022-12-10T01:09:18;54.33;;;21.83;;
23317;SDS011;11831;55.918;37.746;2022-12-10T01:11:52;71.62;;;24.23;;
23317;SDS011;11831;55.918;37.746;2022-12-10T01:14:28;75.22;;;24.20;;
23317;SDS011;11831;55.918;37.746;2022-12-10T01:16:59;81.20;;;23.17;;
23317;SDS011;11831;55.918;37.746;2022-12-10T01:19:30;100.95;;;24.65;;
23317;SDS011;11831;55.918;37.746;2022-12-10T01:21:59;71.40;;;23.95;;
23317;SDS011;11831;55.918;37.746;2022-12-10T01:24:26;71.12;;;24.25;;
23317;SDS011;11831;55.918;37.746;2022-12-10T01:26:53;66.35;;;24.23;;
23317;SDS011;11831;55.918;37.746;2022-12-10T01:29:23;59.45;;;24.67;;
23317;SDS011;11831;55.918;37.746;2022-12-10T01:31:51;55.70;;;21.73;;
23317;SDS011;11831;55.918;37.746;2022-12-10T01:34:18;56.20;;;23.15;;
23317;SDS011;11831;55.918;37.746;2022-12-10T01:36:45;52.72;;;23.27;;
23317;SDS011;11831;55.918;37.746;2022-12-10T01:39:15;71.32;;;25.23;;
23317;SDS011;11831;55.918;37.746;2022-12-10T01:41:44;62.50;;;23.05;;
23317;SDS011;11831;55.918;37.746;2022-12-10T01:46:48;50.72;;;21.80;;
23317;SDS011;11831;55.918;37.746;2022-12-10T01:49:27;61.28;;;24.48;;
23317;SDS011;11831;55.918;37.746;2022-12-10T01:51:59;58.03;;;24.10;;
23317;SDS011;11831;55.918;37.746;2022-12-10T01:54:27;55.17;;;24.33;;
23317;SDS011;11831;55.918;37.746;2022-12-10T01:56:59;56.42;;;23.12;;
23317;SDS011;11831;55.918;37.746;2022-12-10T01:59:27;53.60;;;23.15;;
23317;SDS011;11831;55.918;37.746;2022-12-10T02:12:54;55.97;;;24.63;;
23317;SDS011;11831;55.918;37.746;2022-12-10T02:15:29;51.37;;;24.42;;
23317;SDS011;11831;55.918;37.746;2022-12-10T02:18:04;52.45;;;24.08;;
23317;SDS011;11831;55.918;37.746;2022-12-10T02:20:36;50.70;;;25.12;;
23317;SDS011;11831;55.918;37.746;2022-12-10T02:23:08;58.25;;;25.88;;
23317;SDS011;11831;55.918;37.746;2022-12-10T02:28:48;51.33;;;24.42;;
23317;SDS011;11831;55.918;37.746;2022-12-10T02:31:35;49.05;;;23.15;;
23317;SDS011;11831;55.918;37.746;2022-12-10T02:34:05;48.85;;;23.85;;
23317;SDS011;11831;55.918;37.746;2022-12-10T02:36:35;44.20;;;22.25;;
23317;SDS011;11831;55.918;37.746;2022-12-10T02:39:06;43.85;;;21.45;;
23317;SDS011;11831;55.918;37.746;2022-12-10T02:41:38;50.10;;;24.67;;
23317;SDS011;11831;55.918;37.746;2022-12-10T02:44:09;45.92;;;23.08;;
23317;SDS011;11831;55.918;37.746;2022-12-10T02:46:38;45.27;;;22.30;;
23317;SDS011;11831;55.918;37.746;2022-12-10T02:49:08;49.13;;;24.33;;
23317;SDS011;11831;55.918;37.746;2022-12-10T02:51:37;47.40;;;23.40;;
23317;SDS011;11831;55.918;37.746;2022-12-10T02:54:05;41.25;;;22.95;;
23317;SDS011;11831;55.918;37.746;2022-12-10T02:56:33;44.55;;;22.13;;
23317;SDS011;11831;55.918;37.746;2022-12-10T02:59:14;42.38;;;22.27;;
23317;SDS011;11831;55.918;37.746;2022-12-10T03:07:27;43.13;;;22.45;;
23317;SDS011;11831;55.918;37.746;2022-12-10T03:10:02;44.78;;;23.98;;
23317;SDS011;11831;55.918;37.746;2022-12-10T03:12:47;56.45;;;25.62;;
23317;SDS011;11831;55.918;37.746;2022-12-10T03:15:16;48.10;;;24.20;;
23317;SDS011;11831;55.918;37.746;2022-12-10T03:17:45;53.70;;;26.12;;
23317;SDS011;11831;55.918;37.746;2022-12-10T03:20:13;51.65;;;25.08;;
23317;SDS011;11831;55.918;37.746;2022-12-10T03:22:43;50.05;;;25.95;;
23317;SDS011;11831;55.918;37.746;2022-12-10T03:25:13;48.30;;;24.37;;
23317;SDS011;11831;55.918;37.746;2022-12-10T03:27:45;46.40;;;23.38;;
23317;SDS011;11831;55.918;37.746;2022-12-10T03:30:15;46.58;;;23.15;;
23317;SDS011;11831;55.918;37.746;2022-12-10T03:32:42;46.20;;;23.02;;
23317;SDS011;11831;55.918;37.746;2022-12-10T03:35:10;43.95;;;21.58;;
23317;SDS011;11831;55.918;37.746;2022-12-10T03:37:38;46.78;;;23.50;;
23317;SDS011;11831;55.918;37.746;2022-12-10T03:40:06;46.40;;;22.80;;
23317;SDS011;11831;55.918;37.746;2022-12-10T03:42:36;50.35;;;23.80;;
23317;SDS011;11831;55.918;37.746;2022-12-10T03:45:04;50.28;;;24.77;;
23317;SDS011;11831;55.918;37.746;2022-12-10T03:47:31;50.35;;;23.40;;
23317;SDS011;11831;55.918;37.746;2022-12-10T03:49:58;47.50;;;24.05;;
23317;SDS011;11831;55.918;37.746;2022-12-10T03:52:25;53.55;;;26.52;;
23317;SDS011;11831;55.918;37.746;2022-12-10T03:54:51;58.13;;;26.92;;
23317;SDS011;11831;55.918;37.746;2022-12-10T03:57:18;51.53;;;24.73;;
23317;SDS011;11831;55.918;37.746;2022-12-10T03:59:44;52.97;;;25.02;;
23317;SDS011;11831;55.918;37.746;2022-12-10T04:02:10;55.15;;;25.50;;
23317;SDS011;11831;55.918;37.746;2022-12-10T04:04:37;52.58;;;25.02;;
23317;SDS011;11831;55.918;37.746;2022-12-10T04:07:03;47.55;;;25.10;;
23317;SDS011;11831;55.918;37.746;2022-12-10T04:09:30;54.97;;;25.10;;
23317;SDS011;11831;55.918;37.746;2022-12-10T04:11:57;59.22;;;26.27;;
23317;SDS011;11831;55.918;37.746;2022-12-10T04:14:24;55.42;;;25.12;;
23317;SDS011;11831;55.918;37.746;2022-12-10T04:17:09;52.00;;;24.90;;
23317;SDS011;11831;55.918;37.746;2022-12-10T04:19:36;55.28;;;25.65;;
23317;SDS011;11831;55.918;37.746;2022-12-10T04:22:03;55.55;;;24.75;;
23317;SDS011;11831;55.918;37.746;2022-12-10T04:24:48;50.33;;;23.55;;
23317;SDS011;11831;55.918;37.746;2022-12-10T04:27:52;52.40;;;25.35;;
23317;SDS011;11831;55.918;37.746;2022-12-10T04:30:19;52.35;;;24.58;;
23317;SDS011;11831;55.918;37.746;2022-12-10T04:32:45;54.60;;;24.42;;
23317;SDS011;11831;55.918;37.746;2022-12-10T04:35:12;53.78;;;24.33;;
23317;SDS011;11831;55.918;37.746;2022-12-10T04:37:38;51.95;;;24.73;;
23317;SDS011;11831;55.918;37.746;2022-12-10T04:40:05;53.63;;;24.80;;
23317;SDS011;11831;55.918;37.746;2022-12-10T04:42:32;55.25;;;23.33;;
23317;SDS011;11831;55.918;37.746;2022-12-10T04:44:59;50.92;;;24.87;;
23317;SDS011;11831;55.918;37.746;2022-12-10T04:47:25;56.13;;;26.90;;
23317;SDS011;11831;55.918;37.746;2022-12-10T04:49:52;56.92;;;26.25;;
23317;SDS011;11831;55.918;37.746;2022-12-10T04:52:18;57.85;;;25.02;;
23317;SDS011;11831;55.918;37.746;2022-12-10T04:54:45;55.17;;;24.42;;
23317;SDS011;11831;55.918;37.746;2022-12-10T04:57:11;53.50;;;24.90;;
23317;SDS011;11831;55.918;37.746;2022-12-10T04:59:38;59.00;;;25.58;;
23317;SDS011;11831;55.918;37.746;2022-12-10T05:02:04;60.00;;;24.92;;
23317;SDS011;11831;55.918;37.746;2022-12-10T05:04:32;51.13;;;23.20;;
23317;SDS011;11831;55.918;37.746;2022-12-10T05:06:58;49.75;;;23.10;;
23317;SDS011;11831;55.918;37.746;2022-12-10T05:09:25;57.67;;;24.67;;
23317;SDS011;11831;55.918;37.746;2022-12-10T05:11:51;52.45;;;23.05;;
23317;SDS011;11831;55.918;37.746;2022-12-10T05:14:18;56.42;;;25.92;;
23317;SDS011;11831;55.918;37.746;2022-12-10T05:16:44;58.83;;;24.65;;
23317;SDS011;11831;55.918;37.746;2022-12-10T05:19:11;54.65;;;25.37;;
23317;SDS011;11831;55.918;37.746;2022-12-10T05:21:37;56.35;;;24.45;;
23317;SDS011;11831;55.918;37.746;2022-12-10T05:24:22;51.20;;;22.67;;
23317;SDS011;11831;55.918;37.746;2022-12-10T05:26:49;55.25;;;24.37;;
23317;SDS011;11831;55.918;37.746;2022-12-10T05:29:17;49.75;;;24.30;;
23317;SDS011;11831;55.918;37.746;2022-12-10T05:31:44;52.33;;;23.90;;
23317;SDS011;11831;55.918;37.746;2022-12-10T05:34:11;53.78;;;24.15;;
23317;SDS011;11831;55.918;37.746;2022-12-10T05:36:38;60.47;;;25.10;;
23317;SDS011;11831;55.918;37.746;2022-12-10T05:39:04;56.20;;;23.80;;
23317;SDS011;11831;55.918;37.746;2022-12-10T05:41:33;58.70;;;24.98;;
23317;SDS011;11831;55.918;37.746;2022-12-10T05:44:02;50.45;;;22.83;;
23317;SDS011;11831;55.918;37.746;2022-12-10T05:46:29;54.20;;;22.85;;
23317;SDS011;11831;55.918;37.746;2022-12-10T05:48:57;51.15;;;24.20;;
23317;SDS011;11831;55.918;37.746;2022-12-10T05:51:27;53.33;;;24.17;;
23317;SDS011;11831;55.918;37.746;2022-12-10T05:53:56;50.77;;;22.50;;
23317;SDS011;11831;55.918;37.746;2022-12-10T05:56:24;59.50;;;24.02;;
23317;SDS011;11831;55.918;37.746;2022-12-10T05:58:52;51.20;;;23.20;;
23317;SDS011;11831;55.918;37.746;2022-12-10T06:01:23;56.35;;;23.42;;
23317;SDS011;11831;55.918;37.746;2022-12-10T06:03:51;61.83;;;25.37;;
23317;SDS011;11831;55.918;37.746;2022-12-10T06:06:32;57.10;;;24.85;;
23317;SDS011;11831;55.918;37.746;2022-12-10T06:09:00;50.72;;;24.08;;
23317;SDS011;11831;55.918;37.746;2022-12-10T06:11:28;54.42;;;24.95;;
23317;SDS011;11831;55.918;37.746;2022-12-10T06:13:58;56.75;;;24.15;;
23317;SDS011;11831;55.918;37.746;2022-12-10T06:16:25;53.20;;;24.17;;
23317;SDS011;11831;55.918;37.746;2022-12-10T06:18:53;56.05;;;24.27;;
23317;SDS011;11831;55.918;37.746;2022-12-10T06:21:21;57.20;;;25.12;;
23317;SDS011;11831;55.918;37.746;2022-12-10T06:23:48;54.97;;;24.60;;
23317;SDS011;11831;55.918;37.746;2022-12-10T06:26:18;56.10;;;25.08;;
23317;SDS011;11831;55.918;37.746;2022-12-10T06:28:47;60.15;;;25.42;;
23317;SDS011;11831;55.918;37.746;2022-12-10T06:31:14;56.92;;;24.37;;
23317;SDS011;11831;55.918;37.746;2022-12-10T06:33:42;53.72;;;24.25;;
23317;SDS011;11831;55.918;37.746;2022-12-10T06:36:09;51.17;;;23.67;;
23317;SDS011;11831;55.918;37.746;2022-12-10T06:38:37;52.85;;;24.52;;
23317;SDS011;11831;55.918;37.746;2022-12-10T06:41:05;52.60;;;23.83;;
23317;SDS011;11831;55.918;37.746;2022-12-10T06:43:33;57.85;;;23.60;;
23317;SDS011;11831;55.918;37.746;2022-12-10T06:46:03;47.67;;;23.98;;
23317;SDS011;11831;55.918;37.746;2022-12-10T06:48:31;52.08;;;24.20;;
23317;SDS011;11831;55.918;37.746;2022-12-10T06:50:57;49.90;;;23.05;;
23317;SDS011;11831;55.918;37.746;2022-12-10T06:53:23;51.28;;;23.52;;
23317;SDS011;11831;55.918;37.746;2022-12-10T06:55:50;55.88;;;24.05;;
23317;SDS011;11831;55.918;37.746;2022-12-10T06:58:17;51.80;;;22.98;;
23317;SDS011;11831;55.918;37.746;2022-12-10T07:00:43;55.10;;;25.65;;
23317;SDS011;11831;55.918;37.746;2022-12-10T07:03:09;49.60;;;23.33;;
23317;SDS011;11831;55.918;37.746;2022-12-10T07:05:36;55.58;;;24.27;;
23317;SDS011;11831;55.918;37.746;2022-12-10T07:08:02;56.90;;;26.60;;
23317;SDS011;11831;55.918;37.746;2022-12-10T07:10:29;51.25;;;23.67;;
23317;SDS011;11831;55.918;37.746;2022-12-10T07:12:55;55.35;;;23.65;;
23317;SDS011;11831;55.918;37.746;2022-12-10T07:15:22;53.95;;;24.48;;
23317;SDS011;11831;55.918;37.746;2022-12-10T07:17:50;50.00;;;22.65;;
23317;SDS011;11831;55.918;37.746;2022-12-10T07:20:17;53.47;;;23.05;;
23317;SDS011;11831;55.918;37.746;2022-12-10T07:22:44;49.00;;;23.87;;
23317;SDS011;11831;55.918;37.746;2022-12-10T07:25:10;44.90;;;23.27;;
23317;SDS011;11831;55.918;37.746;2022-12-10T07:27:37;49.58;;;23.83;;
23317;SDS011;11831;55.918;37.746;2022-12-10T07:30:03;48.13;;;23.85;;
23317;SDS011;11831;55.918;37.746;2022-12-10T07:32:30;49.25;;;23.55;;
23317;SDS011;11831;55.918;37.746;2022-12-10T07:34:56;48.30;;;22.55;;
23317;SDS011;11831;55.918;37.746;2022-12-10T07:37:23;46.75;;;23.20;;
23317;SDS011;11831;55.918;37.746;2022-12-10T07:39:49;47.25;;;22.45;;
23317;SDS011;11831;55.918;37.746;2022-12-10T07:42:16;46.90;;;22.08;;
23317;SDS011;11831;55.918;37.746;2022-12-10T07:44:42;45.40;;;22.90;;
23317;SDS011;11831;55.918;37.746;2022-12-10T07:47:09;44.13;;;22.40;;
23317;SDS011;11831;55.918;37.746;2022-12-10T07:49:35;43.50;;;21.25;;
23317;SDS011;11831;55.918;37.746;2022-12-10T07:52:02;46.50;;;22.42;;
23317;SDS011;11831;55.918;37.746;2022-12-10T07:54:29;44.53;;;23.27;;
23317;SDS011;11831;55.918;37.746;2022-12-10T07:56:55;45.83;;;22.30;;
23317;SDS011;11831;55.918;37.746;2022-12-10T07:59:21;50.42;;;23.12;;
23317;SDS011;11831;55.918;37.746;2022-12-10T08:01:48;46.25;;;23.00;;
23317;SDS011;11831;55.918;37.746;2022-12-10T08:04:15;49.90;;;24.20;;
23317;SDS011;11831;55.918;37.746;2022-12-10T08:06:41;47.10;;;23.40;;
23317;SDS011;11831;55.918;37.746;2022-12-10T08:09:08;55.00;;;23.75;;
23317;SDS011;11831;55.918;37.746;2022-12-10T08:11:36;48.63;;;24.12;;
23317;SDS011;11831;55.918;37.746;2022-12-10T08:14:02;49.10;;;22.40;;
23317;SDS011;11831;55.918;37.746;2022-12-10T08:16:29;48.92;;;23.65;;
23317;SDS011;11831;55.918;37.746;2022-12-10T08:18:57;45.92;;;22.13;;
23317;SDS011;11831;55.918;37.746;2022-12-10T08:21:29;47.08;;;23.00;;
23317;SDS011;11831;55.918;37.746;2022-12-10T08:23:58;54.05;;;25.92;;
23317;SDS011;11831;55.918;37.746;2022-12-10T08:26:27;50.83;;;25.77;;
23317;SDS011;11831;55.918;37.746;2022-12-10T08:28:56;54.65;;;26.35;;
23317;SDS011;11831;55.918;37.746;2022-12-10T08:31:23;60.95;;;26.70;;
23317;SDS011;11831;55.918;37.746;2022-12-10T08:33:51;53.72;;;26.10;;
23317;SDS011;11831;55.918;37.746;2022-12-10T08:36:18;61.17;;;27.40;;
23317;SDS011;11831;55.918;37.746;2022-12-10T08:38:45;61.55;;;27.87;;
23317;SDS011;11831;55.918;37.746;2022-12-10T08:41:16;60.08;;;29.37;;
23317;SDS011;11831;55.918;37.746;2022-12-10T08:43:45;60.80;;;28.33;;
23317;SDS011;11831;55.918;37.746;2022-12-10T08:46:12;60.33;;;28.85;;
23317;SDS011;11831;55.918;37.746;2022-12-10T08:48:40;70.22;;;29.70;;
23317;SDS011;11831;55.918;37.746;2022-12-10T08:51:07;71.10;;;32.42;;
23317;SDS011;11831;55.918;37.746;2022-12-10T08:53:34;69.68;;;31.02;;
23317;SDS011;11831;55.918;37.746;2022-12-10T08:56:01;65.87;;;30.80;;
23317;SDS011;11831;55.918;37.746;2022-12-10T08:58:31;68.53;;;30.58;;
23317;SDS011;11831;55.918;37.746;2022-12-10T09:00:58;76.60;;;32.92;;
23317;SDS011;11831;55.918;37.746;2022-12-10T09:03:25;80.43;;;34.22;;
23317;SDS011;11831;55.918;37.746;2022-12-10T09:05:51;76.30;;;32.00;;
23317;SDS011;11831;55.918;37.746;2022-12-10T09:08:18;69.25;;;31.70;;
23317;SDS011;11831;55.918;37.746;2022-12-10T09:10:44;77.32;;;32.28;;
23317;SDS011;11831;55.918;37.746;2022-12-10T09:13:10;81.25;;;34.72;;
23317;SDS011;11831;55.918;37.746;2022-12-10T09:15:37;84.10;;;34.63;;
23317;SDS011;11831;55.918;37.746;2022-12-10T09:18:04;77.00;;;33.53;;
23317;SDS011;11831;55.918;37.746;2022-12-10T09:20:30;77.30;;;33.03;;
23317;SDS011;11831;55.918;37.746;2022-12-10T09:22:56;72.90;;;33.45;;
23317;SDS011;11831;55.918;37.746;2022-12-10T09:25:23;78.45;;;34.78;;
23317;SDS011;11831;55.918;37.746;2022-12-10T09:27:49;77.05;;;35.22;;
23317;SDS011;11831;55.918;37.746;2022-12-10T09:30:16;81.57;;;35.00;;
23317;SDS011;11831;55.918;37.746;2022-12-10T09:32:43;78.32;;;36.00;;
23317;SDS011;11831;55.918;37.746;2022-12-10T09:35:10;77.28;;;36.30;;
23317;SDS011;11831;55.918;37.746;2022-12-10T09:37:36;77.12;;;35.80;;
23317;SDS011;11831;55.918;37.746;2022-12-10T09:40:03;82.12;;;35.80;;
23317;SDS011;11831;55.918;37.746;2022-12-10T09:45:06;74.72;;;33.33;;
23317;SDS011;11831;55.918;37.746;2022-12-10T09:47:44;79.70;;;34.10;;
23317;SDS011;11831;55.918;37.746;2022-12-10T09:50:34;75.68;;;34.05;;
23317;SDS011;11831;55.918;37.746;2022-12-10T09:53:12;75.28;;;33.70;;
23317;SDS011;11831;55.918;37.746;2022-12-10T09:55:42;86.22;;;37.22;;
23317;SDS011;11831;55.918;37.746;2022-12-10T09:58:22;95.38;;;37.72;;
23317;SDS011;11831;55.918;37.746;2022-12-10T10:00:55;81.30;;;35.45;;
23317;SDS011;11831;55.918;37.746;2022-12-10T10:03:31;79.90;;;33.78;;
23317;SDS011;11831;55.918;37.746;2022-12-10T10:06:04;84.97;;;36.10;;
23317;SDS011;11831;55.918;37.746;2022-12-10T10:08:32;78.45;;;35.70;;
23317;SDS011;11831;55.918;37.746;2022-12-10T10:11:03;85.30;;;35.17;;
23317;SDS011;11831;55.918;37.746;2022-12-10T10:13:38;74.25;;;34.85;;
23317;SDS011;11831;55.918;37.746;2022-12-10T10:18:38;75.18;;;35.28;;
23317;SDS011;11831;55.918;37.746;2022-12-10T10:21:11;77.97;;;33.10;;
23317;SDS011;11831;55.918;37.746;2022-12-10T10:23:51;80.22;;;34.25;;
23317;SDS011;11831;55.918;37.746;2022-12-10T10:26:18;79.68;;;34.45;;
23317;SDS011;11831;55.918;37.746;2022-12-10T10:28:45;82.75;;;36.90;;
23317;SDS011;11831;55.918;37.746;2022-12-10T10:31:16;82.20;;;35.85;;
23317;SDS011;11831;55.918;37.746;2022-12-10T10:33:50;75.65;;;34.70;;
23317;SDS011;11831;55.918;37.746;2022-12-10T10:36:26;88.00;;;35.65;;
23317;SDS011;11831;55.918;37.746;2022-12-10T10:38:54;82.07;;;35.78;;
23317;SDS011;11831;55.918;37.746;2022-12-10T10:41:23;73.75;;;32.22;;
23317;SDS011;11831;55.918;37.746;2022-12-10T10:43:51;68.70;;;32.03;;
23317;SDS011;11831;55.918;37.746;2022-12-10T10:46:26;69.75;;;31.87;;
23317;SDS011;11831;55.918;37.746;2022-12-10T10:48:53;72.53;;;32.00;;
23317;SDS011;11831;55.918;37.746;2022-12-10T10:51:43;60.53;;;30.00;;
23317;SDS011;11831;55.918;37.746;2022-12-10T10:54:47;69.97;;;32.60;;
23317;SDS011;11831;55.918;37.746;2022-12-10T10:57:12;67.80;;;31.75;;
23317;SDS011;11831;55.918;37.746;2022-12-10T10:59:42;67.60;;;31.02;;
23317;SDS011;11831;55.918;37.746;2022-12-10T11:05:06;60.78;;;28.48;;
23317;SDS011;11831;55.918;37.746;2022-12-10T11:07:41;58.83;;;29.00;;
23317;SDS011;11831;55.918;37.746;2022-12-10T11:10:21;64.57;;;29.05;;
23317;SDS011;11831;55.918;37.746;2022-12-10T11:13:18;56.92;;;28.10;;
23317;SDS011;11831;55.918;37.746;2022-12-10T11:15:45;57.55;;;29.55;;
23317;SDS011;11831;55.918;37.746;2022-12-10T11:20:59;62.72;;;30.02;;
23317;SDS011;11831;55.918;37.746;2022-12-10T11:23:29;56.90;;;29.05;;
23317;SDS011;11831;55.918;37.746;2022-12-10T11:45:20;54.13;;;27.10;;
23317;SDS011;11831;55.918;37.746;2022-12-10T11:50:57;60.15;;;27.75;;
23317;SDS011;11831;55.918;37.746;2022-12-10T11:57:30;49.80;;;25.95;;
23317;SDS011;11831;55.918;37.746;2022-12-10T11:59:48;52.50;;;27.10;;
23317;SDS011;11831;55.918;37.746;2022-12-10T12:05:29;50.85;;;25.85;;
23317;SDS011;11831;55.918;37.746;2022-12-10T12:16:23;52.55;;;26.55;;
23317;SDS011;11831;55.918;37.746;2022-12-10T12:19:00;49.97;;;24.23;;
23317;SDS011;11831;55.918;37.746;2022-12-10T12:21:31;49.15;;;24.83;;
23317;SDS011;11831;55.918;37.746;2022-12-10T12:24:00;42.92;;;22.25;;
23317;SDS011;11831;55.918;37.746;2022-12-10T12:26:53;48.22;;;25.52;;
23317;SDS011;11831;55.918;37.746;2022-12-10T12:29:28;44.85;;;23.23;;
23317;SDS011;11831;55.918;37.746;2022-12-10T12:32:38;46.40;;;22.55;;
23317;SDS011;11831;55.918;37.746;2022-12-10T12:35:13;48.63;;;24.15;;
23317;SDS011;11831;55.918;37.746;2022-12-10T12:38:06;48.85;;;23.65;;
23317;SDS011;11831;55.918;37.746;2022-12-10T12:40:39;49.78;;;24.30;;
23317;SDS011;11831;55.918;37.746;2022-12-10T12:43:15;42.22;;;22.60;;
23317;SDS011;11831;55.918;37.746;2022-12-10T12:51:05;54.38;;;24.12;;
23317;SDS011;11831;55.918;37.746;2022-12-10T12:53:36;49.55;;;23.92;;
23317;SDS011;11831;55.918;37.746;2022-12-10T12:56:06;46.83;;;23.08;;
23317;SDS011;11831;55.918;37.746;2022-12-10T13:04:22;47.90;;;24.77;;
23317;SDS011;11831;55.918;37.746;2022-12-10T13:09:48;51.53;;;25.77;;
23317;SDS011;11831;55.918;37.746;2022-12-10T13:12:28;50.12;;;24.25;;
23317;SDS011;11831;55.918;37.746;2022-12-10T13:17:33;45.33;;;23.62;;
23317;SDS011;11831;55.918;37.746;2022-12-10T13:21:15;44.45;;;23.80;;
23317;SDS011;11831;55.918;37.746;2022-12-10T13:28:22;46.92;;;23.10;;
23317;SDS011;11831;55.918;37.746;2022-12-10T13:33:52;40.22;;;22.85;;
23317;SDS011;11831;55.918;37.746;2022-12-10T13:37:02;48.70;;;26.50;;
23317;SDS011;11831;55.918;37.746;2022-12-10T13:39:58;45.25;;;24.23;;
23317;SDS011;11831;55.918;37.746;2022-12-10T13:42:29;48.42;;;24.25;;
23317;SDS011;11831;55.918;37.746;2022-12-10T13:47:49;42.83;;;23.95;;
23317;SDS011;11831;55.918;37.746;2022-12-10T13:50:19;45.00;;;21.65;;
23317;SDS011;11831;55.918;37.746;2022-12-10T14:00:55;40.60;;;20.15;;
23317;SDS011;11831;55.918;37.746;2022-12-10T14:06:25;39.63;;;19.67;;
23317;SDS011;11831;55.918;37.746;2022-12-10T14:09:03;36.65;;;19.73;;
23317;SDS011;11831;55.918;37.746;2022-12-10T14:11:37;32.53;;;17.40;;
23317;SDS011;11831;55.918;37.746;2022-12-10T14:14:13;31.30;;;16.40;;
23317;SDS011;11831;55.918;37.746;2022-12-10T14:16:45;33.17;;;16.35;;
23317;SDS011;11831;55.918;37.746;2022-12-10T14:19:13;31.67;;;16.60;;
23317;SDS011;11831;55.918;37.746;2022-12-10T14:21:42;35.55;;;21.00;;
23317;SDS011;11831;55.918;37.746;2022-12-10T14:27:02;33.95;;;16.37;;
23317;SDS011;11831;55.918;37.746;2022-12-10T14:29:37;31.05;;;17.15;;
23317;SDS011;11831;55.918;37.746;2022-12-10T14:32:14;30.42;;;17.20;;
23317;SDS011;11831;55.918;37.746;2022-12-10T14:34:46;33.17;;;17.00;;
23317;SDS011;11831;55.918;37.746;2022-12-10T14:37:19;32.22;;;17.10;;
23317;SDS011;11831;55.918;37.746;2022-12-10T14:39:51;29.48;;;15.95;;
23317;SDS011;11831;55.918;37.746;2022-12-10T14:42:19;31.48;;;15.88;;
23317;SDS011;11831;55.918;37.746;2022-12-10T14:44:49;29.37;;;16.98;;
23317;SDS011;11831;55.918;37.746;2022-12-10T14:47:22;30.75;;;17.17;;
23317;SDS011;11831;55.918;37.746;2022-12-10T14:49:49;31.42;;;17.12;;
23317;SDS011;11831;55.918;37.746;2022-12-10T14:52:40;31.80;;;17.05;;
23317;SDS011;11831;55.918;37.746;2022-12-10T14:55:13;32.28;;;17.27;;
23317;SDS011;11831;55.918;37.746;2022-12-10T14:57:42;32.33;;;17.23;;
23317;SDS011;11831;55.918;37.746;2022-12-10T15:00:16;30.90;;;16.40;;
23317;SDS011;11831;55.918;37.746;2022-12-10T15:02:45;30.48;;;16.12;;
23317;SDS011;11831;55.918;37.746;2022-12-10T15:05:18;31.35;;;15.55;;
23317;SDS011;11831;55.918;37.746;2022-12-10T15:07:59;31.42;;;16.10;;
23317;SDS011;11831;55.918;37.746;2022-12-10T15:10:40;33.70;;;17.37;;
23317;SDS011;11831;55.918;37.746;2022-12-10T15:13:18;50.25;;;28.50;;
23317;SDS011;11831;55.918;37.746;2022-12-10T15:15:48;28.00;;;16.23;;
23317;SDS011;11831;55.918;37.746;2022-12-10T15:18:18;29.30;;;15.98;;
23317;SDS011;11831;55.918;37.746;2022-12-10T15:20:47;28.75;;;16.90;;
23317;SDS011;11831;55.918;37.746;2022-12-10T15:25:52;26.33;;;15.60;;
23317;SDS011;11831;55.918;37.746;2022-12-10T15:30:59;28.70;;;15.75;;
23317;SDS011;11831;55.918;37.746;2022-12-10T15:33:43;26.52;;;15.15;;
23317;SDS011;11831;55.918;37.746;2022-12-10T15:36:25;28.60;;;16.25;;
23317;SDS011;11831;55.918;37.746;2022-12-10T15:41:41;27.83;;;15.07;;
23317;SDS011;11831;55.918;37.746;2022-12-10T15:47:21;34.50;;;21.00;;
23317;SDS011;11831;55.918;37.746;2022-12-10T15:49:50;25.02;;;14.55;;
23317;SDS011;11831;55.918;37.746;2022-12-10T15:52:25;27.10;;;14.95;;
23317;SDS011;11831;55.918;37.746;2022-12-10T15:54:54;24.50;;;14.60;;
23317;SDS011;11831;55.918;37.746;2022-12-10T15:57:29;23.45;;;13.93;;
23317;SDS011;11831;55.918;37.746;2022-12-10T15:59:58;26.52;;;14.45;;
23317;SDS011;11831;55.918;37.746;2022-12-10T16:02:39;21.87;;;13.27;;
23317;SDS011;11831;55.918;37.746;2022-12-10T16:05:27;24.00;;;14.82;;
23317;SDS011;11831;55.918;37.746;2022-12-10T16:07:56;23.27;;;13.38;;
23317;SDS011;11831;55.918;37.746;2022-12-10T16:10:26;109.90;;;73.15;;
23317;SDS011;11831;55.918;37.746;2022-12-10T16:13:13;23.67;;;13.07;;
23317;SDS011;11831;55.918;37.746;2022-12-10T16:15:50;22.52;;;13.85;;
23317;SDS011;11831;55.918;37.746;2022-12-10T16:18:18;24.02;;;14.30;;
23317;SDS011;11831;55.918;37.746;2022-12-10T16:20:45;59.90;;;35.40;;
23317;SDS011;11831;55.918;37.746;2022-12-10T16:23:12;24.33;;;13.40;;
23317;SDS011;11831;55.918;37.746;2022-12-10T16:25:40;24.05;;;12.65;;
23317;SDS011;11831;55.918;37.746;2022-12-10T16:28:10;20.42;;;13.00;;
23317;SDS011;11831;55.918;37.746;2022-12-10T16:30:44;19.12;;;12.43;;